Time;durP1;ratioP1;P1;durP2;ratioP2;P2;SDS_P1;SDS_P2;PMS_P1;PMS_P2;Temp;Humidity;BMP_temperature;BMP_pressure;BME280_temperature;BME280_humidity;BME280_pressure;Samples;Min_cycle;Max_cycle;Signal;HPM_P1;HPM_P2
2022/10/25 00:02:13;;;;;;;6.47;2.40;;;;;;;;;;5052100;28;20222;-44
2022/10/25 00:04:39;;;;;;;5.63;2.37;;;;;;;;;;5052348;28;20204;-45
2022/10/25 00:07:07;;;;;;;8.53;2.63;;;;;;;;;;5052075;28;20310;-45
2022/10/25 00:09:33;;;;;;;6.30;2.60;;;;;;;;;;5052200;28;20285;-45
2022/10/25 00:11:59;;;;;;;5.37;2.80;;;;;;;;;;5052462;28;20253;-45
2022/10/25 00:14:25;;;;;;;9.07;2.73;;;;;;;;;;5052309;28;20192;-45
2022/10/25 00:16:51;;;;;;;5.93;2.40;;;;;;;;;;5052075;28;20250;-45
2022/10/25 00:19:17;;;;;;;6.57;2.50;;;;;;;;;;5051961;28;20202;-45
2022/10/25 00:21:43;;;;;;;5.53;2.40;;;;;;;;;;5052154;28;20195;-45
2022/10/25 00:24:12;;;;;;;4.83;2.47;;;;;;;;;;5051920;28;20198;-45
2022/10/25 00:26:40;;;;;;;5.50;2.57;;;;;;;;;;5051956;28;20200;-45
2022/10/25 00:29:07;;;;;;;8.37;2.43;;;;;;;;;;5052274;28;20235;-44
2022/10/25 00:31:33;;;;;;;6.40;2.60;;;;;;;;;;5051536;28;20720;-44
2022/10/25 00:33:59;;;;;;;6.47;2.57;;;;;;;;;;5051395;28;20205;-44
2022/10/25 00:36:25;;;;;;;8.30;2.53;;;;;;;;;;5051896;28;20249;-44
2022/10/25 00:38:51;;;;;;;4.40;2.27;;;;;;;;;;5051776;28;20192;-44
2022/10/25 00:41:20;;;;;;;2.87;2.20;;;;;;;;;;5051547;28;20671;-44
2022/10/25 00:43:47;;;;;;;5.00;2.47;;;;;;;;;;5051750;28;20204;-44
2022/10/25 00:46:22;;;;;;;3.63;2.30;;;;;;;;;;5051535;28;20673;-43
2022/10/25 00:48:51;;;;;;;3.60;2.77;;;;;;;;;;5051655;28;20219;-44
2022/10/25 00:51:17;;;;;;;5.07;2.17;;;;;;;;;;5051712;28;20323;-44
2022/10/25 00:53:44;;;;;;;4.70;2.43;;;;;;;;;;5051697;28;20196;-43
2022/10/25 00:56:12;;;;;;;6.90;2.47;;;;;;;;;;5051340;28;20189;-44
2022/10/25 00:58:41;;;;;;;4.83;2.97;;;;;;;;;;5051562;28;20275;-44
2022/10/25 01:01:09;;;;;;;6.47;2.67;;;;;;;;;;5051543;28;20222;-44
2022/10/25 01:03:36;;;;;;;4.43;2.53;;;;;;;;;;5051600;28;20230;-43
2022/10/25 01:06:04;;;;;;;5.03;2.87;;;;;;;;;;5051504;28;20338;-44
2022/10/25 01:08:31;;;;;;;6.00;3.00;;;;;;;;;;5051510;28;20251;-44
2022/10/25 01:10:57;;;;;;;5.93;3.13;;;;;;;;;;5049733;28;20696;-44
2022/10/25 01:13:23;;;;;;;7.73;3.10;;;;;;;;;;5056248;28;20192;-44
2022/10/25 01:15:58;;;;;;;6.07;3.10;;;;;;;;;;5057877;28;20196;-44
2022/10/25 01:18:27;;;;;;;7.17;3.00;;;;;;;;;;5057862;28;20741;-44
2022/10/25 01:21:11;;;;;;;9.63;3.63;;;;;;;;;;5058012;28;20195;-44
2022/10/25 01:23:44;;;;;;;5.63;3.53;;;;;;;;;;5058120;28;20416;-44
2022/10/25 01:26:27;;;;;;;7.20;3.40;;;;;;;;;;5057881;28;20630;-44
2022/10/25 01:29:02;;;;;;;9.57;4.87;;;;;;;;;;5057812;28;20228;-45
2022/10/25 01:31:34;;;;;;;6.40;3.70;;;;;;;;;;5057993;28;20234;-45
2022/10/25 01:34:03;;;;;;;11.03;4.53;;;;;;;;;;5056738;28;20199;-45
2022/10/25 01:36:35;;;;;;;5.77;3.83;;;;;;;;;;5057219;28;20596;-45
2022/10/25 01:39:08;;;;;;;9.27;4.27;;;;;;;;;;5057569;28;20188;-45
2022/10/25 01:41:40;;;;;;;6.17;4.30;;;;;;;;;;5058033;28;20196;-45
2022/10/25 01:44:12;;;;;;;5.90;3.93;;;;;;;;;;5057743;28;20655;-45
2022/10/25 01:46:43;;;;;;;8.63;4.60;;;;;;;;;;5057886;28;20196;-45
2022/10/25 01:49:12;;;;;;;7.70;4.20;;;;;;;;;;5057748;28;20323;-45
2022/10/25 01:51:38;;;;;;;8.43;4.87;;;;;;;;;;5057431;28;20240;-45
2022/10/25 01:54:16;;;;;;;7.80;4.33;;;;;;;;;;5057525;28;20196;-44
2022/10/25 01:56:45;;;;;;;6.27;4.40;;;;;;;;;;5057581;28;20192;-43
2022/10/25 01:59:22;;;;;;;5.53;4.40;;;;;;;;;;5057530;28;20198;-45
2022/10/25 02:01:58;;;;;;;6.47;4.10;;;;;;;;;;5057553;28;20300;-45
2022/10/25 02:04:30;;;;;;;4.20;3.80;;;;;;;;;;5057757;28;20196;-45
2022/10/25 02:07:00;;;;;;;6.10;4.37;;;;;;;;;;5057429;28;20204;-45
2022/10/25 02:09:29;;;;;;;9.07;4.53;;;;;;;;;;5056031;28;20624;-45
2022/10/25 02:11:57;;;;;;;6.93;4.97;;;;;;;;;;5055819;28;20203;-45
2022/10/25 02:14:26;;;;;;;7.30;4.40;;;;;;;;;;5057434;28;20204;-43
2022/10/25 02:16:56;;;;;;;9.60;5.03;;;;;;;;;;5057284;28;20196;-45
2022/10/25 02:19:25;;;;;;;6.17;4.27;;;;;;;;;;5057039;28;20196;-45
2022/10/25 02:21:52;;;;;;;4.50;3.80;;;;;;;;;;5057321;28;20603;-45
2022/10/25 02:24:20;;;;;;;6.97;4.23;;;;;;;;;;5054146;28;20202;-45
2022/10/25 02:26:46;;;;;;;5.93;4.00;;;;;;;;;;5054011;28;20206;-45
2022/10/25 02:29:14;;;;;;;8.47;3.70;;;;;;;;;;5054136;28;20220;-45
2022/10/25 02:31:40;;;;;;;7.83;3.83;;;;;;;;;;5053994;28;20452;-45
2022/10/25 02:34:07;;;;;;;7.47;3.50;;;;;;;;;;5053743;28;20441;-45
2022/10/25 02:36:33;;;;;;;7.90;4.53;;;;;;;;;;5054034;28;20298;-45
2022/10/25 02:38:59;;;;;;;7.53;3.87;;;;;;;;;;5053708;28;20214;-46
2022/10/25 02:41:25;;;;;;;5.47;4.47;;;;;;;;;;5054039;28;20196;-45
2022/10/25 02:43:51;;;;;;;9.07;4.50;;;;;;;;;;5053973;28;20245;-45
2022/10/25 02:46:18;;;;;;;10.03;4.63;;;;;;;;;;5053867;28;20203;-45
2022/10/25 02:48:45;;;;;;;9.10;4.80;;;;;;;;;;5053527;28;20234;-45
2022/10/25 02:51:12;;;;;;;8.50;5.00;;;;;;;;;;5053538;28;20244;-45
2022/10/25 02:53:39;;;;;;;8.50;5.07;;;;;;;;;;5053384;28;20222;-45
2022/10/25 02:56:05;;;;;;;7.77;4.87;;;;;;;;;;5053448;28;20224;-45
2022/10/25 02:58:33;;;;;;;10.50;4.90;;;;;;;;;;5053237;28;20685;-49
2022/10/25 03:00:59;;;;;;;5.73;4.50;;;;;;;;;;5053323;28;20283;-45
2022/10/25 03:03:25;;;;;;;11.30;5.03;;;;;;;;;;5053557;28;20204;-45
2022/10/25 03:05:52;;;;;;;8.33;4.77;;;;;;;;;;5053276;28;20184;-45
2022/10/25 03:08:20;;;;;;;8.57;5.07;;;;;;;;;;5053165;28;20763;-45
2022/10/25 03:10:46;;;;;;;10.03;5.03;;;;;;;;;;5053044;28;20207;-45
2022/10/25 03:13:12;;;;;;;8.87;4.40;;;;;;;;;;5053330;28;20204;-45
2022/10/25 03:15:38;;;;;;;7.87;5.20;;;;;;;;;;5053203;28;20250;-45
2022/10/25 03:18:04;;;;;;;9.27;5.87;;;;;;;;;;5053577;28;20192;-45
2022/10/25 03:20:30;;;;;;;9.37;6.83;;;;;;;;;;5053151;28;20206;-45
2022/10/25 03:22:56;;;;;;;11.73;6.70;;;;;;;;;;5052923;28;20204;-45
2022/10/25 03:25:23;;;;;;;7.83;5.97;;;;;;;;;;5053000;28;20200;-45
2022/10/25 03:27:49;;;;;;;11.10;7.43;;;;;;;;;;5052890;28;20211;-45
2022/10/25 03:30:15;;;;;;;9.03;7.60;;;;;;;;;;5069300;28;20207;-45
2022/10/25 03:32:41;;;;;;;8.57;7.13;;;;;;;;;;5072072;28;20206;-45
2022/10/25 03:35:08;;;;;;;9.77;7.47;;;;;;;;;;5072405;28;20196;-45
2022/10/25 03:37:34;;;;;;;11.33;8.37;;;;;;;;;;5072250;28;20279;-45
2022/10/25 03:40:00;;;;;;;9.07;7.90;;;;;;;;;;5072499;28;20199;-45
2022/10/25 03:42:27;;;;;;;10.00;8.67;;;;;;;;;;5072615;28;20207;-45
2022/10/25 03:44:53;;;;;;;10.63;8.53;;;;;;;;;;5072542;28;20199;-45
2022/10/25 03:47:19;;;;;;;11.07;8.23;;;;;;;;;;5072463;28;20195;-45
2022/10/25 03:49:45;;;;;;;12.10;8.53;;;;;;;;;;5072248;28;20219;-45
2022/10/25 03:52:11;;;;;;;8.57;7.77;;;;;;;;;;5071865;28;20690;-45
2022/10/25 03:54:37;;;;;;;9.53;7.67;;;;;;;;;;5072169;28;20211;-45
2022/10/25 03:57:03;;;;;;;15.80;8.80;;;;;;;;;;5072303;28;20614;-45
2022/10/25 03:59:31;;;;;;;8.97;8.00;;;;;;;;;;5072132;28;20242;-45
2022/10/25 04:01:57;;;;;;;7.93;7.17;;;;;;;;;;5072102;28;20287;-45
2022/10/25 04:04:23;;;;;;;9.50;7.10;;;;;;;;;;5072396;28;20195;-45
2022/10/25 04:06:49;;;;;;;12.60;7.10;;;;;;;;;;5071773;28;20543;-45
2022/10/25 04:09:15;;;;;;;10.87;7.43;;;;;;;;;;5071837;28;20231;-45
2022/10/25 04:11:41;;;;;;;9.97;6.83;;;;;;;;;;5071772;28;20202;-45
2022/10/25 04:14:07;;;;;;;9.80;6.37;;;;;;;;;;5071511;28;20199;-45
2022/10/25 04:16:34;;;;;;;9.10;7.10;;;;;;;;;;5072095;28;20200;-44
2022/10/25 04:19:00;;;;;;;10.33;6.47;;;;;;;;;;5071041;28;20253;-45
2022/10/25 04:21:26;;;;;;;9.43;7.67;;;;;;;;;;5071928;28;20199;-45
2022/10/25 04:23:53;;;;;;;8.00;6.47;;;;;;;;;;5071783;28;20287;-44
2022/10/25 04:26:19;;;;;;;9.40;7.70;;;;;;;;;;5071875;28;20200;-44
2022/10/25 04:28:48;;;;;;;13.77;7.47;;;;;;;;;;5071549;28;20724;-44
2022/10/25 04:31:14;;;;;;;12.60;7.40;;;;;;;;;;5071568;28;20203;-44
2022/10/25 04:33:42;;;;;;;10.53;7.40;;;;;;;;;;5071587;28;20242;-44
2022/10/25 04:36:08;;;;;;;7.57;6.67;;;;;;;;;;5071585;28;20235;-44
2022/10/25 04:38:34;;;;;;;9.77;6.77;;;;;;;;;;5071477;28;20241;-45
2022/10/25 04:41:01;;;;;;;7.57;6.80;;;;;;;;;;5071542;28;20199;-44
2022/10/25 04:43:28;;;;;;;7.37;6.50;;;;;;;;;;5071458;28;20731;-44
2022/10/25 04:45:54;;;;;;;8.83;6.77;;;;;;;;;;5070912;28;20211;-44
2022/10/25 04:48:21;;;;;;;10.17;6.43;;;;;;;;;;5070698;28;20234;-44
2022/10/25 04:50:48;;;;;;;10.37;6.60;;;;;;;;;;5071177;28;20239;-44
2022/10/25 04:53:14;;;;;;;8.97;6.07;;;;;;;;;;5071413;28;20207;-44
2022/10/25 04:55:40;;;;;;;8.57;6.37;;;;;;;;;;5071475;28;20229;-44
2022/10/25 04:58:06;;;;;;;9.07;5.87;;;;;;;;;;5071335;28;20574;-44
2022/10/25 05:00:32;;;;;;;12.33;6.40;;;;;;;;;;5071093;28;20605;-44
2022/10/25 05:02:58;;;;;;;8.07;5.30;;;;;;;;;;5071106;28;20248;-44
2022/10/25 05:05:25;;;;;;;11.77;5.77;;;;;;;;;;5071348;28;20218;-44
2022/10/25 05:07:52;;;;;;;9.47;5.37;;;;;;;;;;5070865;28;20215;-44
2022/10/25 05:10:18;;;;;;;7.53;6.80;;;;;;;;;;5071056;28;20272;-44
2022/10/25 05:12:44;;;;;;;13.90;9.30;;;;;;;;;;5071295;28;20286;-44
2022/10/25 05:15:10;;;;;;;10.10;7.03;;;;;;;;;;5071141;28;20283;-44
2022/10/25 05:17:36;;;;;;;10.23;6.23;;;;;;;;;;5071011;28;20191;-44
2022/10/25 05:20:03;;;;;;;8.20;5.90;;;;;;;;;;5071029;28;20191;-44
2022/10/25 05:22:29;;;;;;;8.77;6.33;;;;;;;;;;5071078;28;20208;-44
2022/10/25 05:24:56;;;;;;;9.40;5.83;;;;;;;;;;5070732;28;20290;-44
2022/10/25 05:27:22;;;;;;;9.60;6.10;;;;;;;;;;5070707;28;20234;-44
2022/10/25 05:29:48;;;;;;;11.70;7.13;;;;;;;;;;5069950;28;20267;-45
2022/10/25 05:32:14;;;;;;;13.13;7.20;;;;;;;;;;5071197;28;20290;-44
2022/10/25 05:34:40;;;;;;;8.70;6.80;;;;;;;;;;5071142;28;20242;-44
2022/10/25 05:37:06;;;;;;;11.83;6.57;;;;;;;;;;5070515;28;20223;-44
2022/10/25 05:39:32;;;;;;;8.07;6.93;;;;;;;;;;5070883;28;20246;-44
2022/10/25 05:42:01;;;;;;;10.90;7.33;;;;;;;;;;5070392;28;20203;-44
2022/10/25 05:44:27;;;;;;;11.73;6.53;;;;;;;;;;5070708;28;20199;-44
2022/10/25 05:46:54;;;;;;;10.87;6.50;;;;;;;;;;5070569;28;20198;-44
2022/10/25 05:49:20;;;;;;;9.77;6.80;;;;;;;;;;5070640;28;20693;-44
2022/10/25 05:51:46;;;;;;;10.93;6.70;;;;;;;;;;5070634;28;20235;-44
2022/10/25 05:54:13;;;;;;;8.43;6.00;;;;;;;;;;5070695;28;20187;-44
2022/10/25 05:56:39;;;;;;;9.30;6.23;;;;;;;;;;5070113;28;20208;-44
2022/10/25 05:59:08;;;;;;;11.37;7.07;;;;;;;;;;5072293;28;20191;-44
2022/10/25 06:01:34;;;;;;;9.60;6.77;;;;;;;;;;5074470;28;20365;-44
2022/10/25 06:04:00;;;;;;;11.50;6.80;;;;;;;;;;5074604;28;20196;-44
2022/10/25 06:06:27;;;;;;;13.47;7.13;;;;;;;;;;5074493;28;20198;-44
2022/10/25 06:08:55;;;;;;;12.20;7.50;;;;;;;;;;5074257;28;20314;-44
2022/10/25 06:11:21;;;;;;;10.27;7.33;;;;;;;;;;5074338;28;20213;-44
2022/10/25 06:13:47;;;;;;;12.60;7.40;;;;;;;;;;5074289;28;20279;-44
2022/10/25 06:16:16;;;;;;;11.83;6.50;;;;;;;;;;5072359;28;20633;-44
2022/10/25 06:18:42;;;;;;;10.67;6.30;;;;;;;;;;5074164;28;20286;-44
2022/10/25 06:21:10;;;;;;;13.13;7.27;;;;;;;;;;5073057;28;20207;-44
2022/10/25 06:23:36;;;;;;;11.10;6.87;;;;;;;;;;5074079;28;20662;-44
2022/10/25 06:26:03;;;;;;;9.10;6.40;;;;;;;;;;5073607;28;20214;-43
2022/10/25 06:28:29;;;;;;;14.87;7.33;;;;;;;;;;5073541;28;20219;-44
2022/10/25 06:31:00;;;;;;;9.17;6.20;;;;;;;;;;5073637;28;20207;-44
2022/10/25 06:33:27;;;;;;;8.97;5.47;;;;;;;;;;5073538;28;20195;-44
2022/10/25 06:35:54;;;;;;;8.43;5.83;;;;;;;;;;5073337;28;20203;-45
2022/10/25 06:38:20;;;;;;;10.70;5.70;;;;;;;;;;5073157;28;20568;-45
2022/10/25 06:40:46;;;;;;;10.07;5.67;;;;;;;;;;5072936;28;20203;-45
2022/10/25 06:43:12;;;;;;;10.13;5.83;;;;;;;;;;5073940;28;20225;-45
2022/10/25 06:45:38;;;;;;;10.70;5.33;;;;;;;;;;5072338;28;20673;-45
2022/10/25 06:48:04;;;;;;;11.13;5.80;;;;;;;;;;5073447;28;20651;-44
2022/10/25 06:50:32;;;;;;;8.53;5.20;;;;;;;;;;5073553;28;20246;-45
2022/10/25 06:52:58;;;;;;;8.00;4.90;;;;;;;;;;5073438;28;20238;-45
2022/10/25 06:55:24;;;;;;;9.30;5.53;;;;;;;;;;5073132;28;20227;-45
2022/10/25 06:57:50;;;;;;;9.37;5.30;;;;;;;;;;5073014;28;20674;-45
2022/10/25 07:00:16;;;;;;;9.70;4.77;;;;;;;;;;5073362;28;20203;-45
2022/10/25 07:02:42;;;;;;;10.60;4.83;;;;;;;;;;5073309;28;20200;-45
2022/10/25 07:05:08;;;;;;;8.90;4.83;;;;;;;;;;5073339;28;20650;-45
2022/10/25 07:07:36;;;;;;;12.97;8.07;;;;;;;;;;5073328;28;20215;-45
2022/10/25 07:10:02;;;;;;;13.70;8.17;;;;;;;;;;5072404;28;20255;-45
2022/10/25 07:12:29;;;;;;;13.17;7.43;;;;;;;;;;5073327;28;20202;-45
2022/10/25 07:14:55;;;;;;;10.80;7.90;;;;;;;;;;5073066;28;20211;-45
2022/10/25 07:17:21;;;;;;;15.67;5.47;;;;;;;;;;5073107;28;20522;-45
2022/10/25 07:19:47;;;;;;;6.57;4.50;;;;;;;;;;5072996;28;20285;-45
2022/10/25 07:22:13;;;;;;;8.83;4.93;;;;;;;;;;5073389;28;20310;-45
2022/10/25 07:24:40;;;;;;;12.07;5.47;;;;;;;;;;5072877;28;20286;-45
2022/10/25 07:27:07;;;;;;;8.93;4.93;;;;;;;;;;5072225;28;20666;-46
2022/10/25 07:29:33;;;;;;;11.57;4.83;;;;;;;;;;5072565;28;20234;-45
2022/10/25 07:31:59;;;;;;;14.17;4.40;;;;;;;;;;5072411;28;20199;-45
2022/10/25 07:34:25;;;;;;;8.73;4.20;;;;;;;;;;5072752;28;20214;-45
2022/10/25 07:36:51;;;;;;;9.03;4.00;;;;;;;;;;5072563;28;20848;-45
2022/10/25 07:39:17;;;;;;;7.40;4.47;;;;;;;;;;5072818;28;20676;-44
2022/10/25 07:41:44;;;;;;;12.93;5.20;;;;;;;;;;5072744;28;20200;-45
2022/10/25 07:44:10;;;;;;;5.77;4.00;;;;;;;;;;5072423;28;20698;-45
2022/10/25 07:46:36;;;;;;;10.67;4.27;;;;;;;;;;5071396;28;20246;-45
2022/10/25 07:49:02;;;;;;;7.80;4.47;;;;;;;;;;5072043;28;20219;-46
2022/10/25 07:51:28;;;;;;;9.97;4.70;;;;;;;;;;5071858;28;20345;-46
2022/10/25 07:53:54;;;;;;;9.07;4.43;;;;;;;;;;5072031;28;20287;-46
2022/10/25 07:56:20;;;;;;;13.67;5.20;;;;;;;;;;5072207;28;20196;-46
2022/10/25 07:58:48;;;;;;;7.80;4.20;;;;;;;;;;5072196;28;20196;-46
2022/10/25 08:01:17;;;;;;;10.23;4.90;;;;;;;;;;5071313;28;20671;-44
2022/10/25 08:03:43;;;;;;;11.23;4.73;;;;;;;;;;5072153;28;20205;-46
2022/10/25 08:06:09;;;;;;;8.50;4.23;;;;;;;;;;5072076;28;20272;-46
2022/10/25 08:08:35;;;;;;;10.03;4.30;;;;;;;;;;5071792;28;20334;-46
2022/10/25 08:11:03;;;;;;;7.77;4.30;;;;;;;;;;5072010;28;20191;-46
2022/10/25 08:13:29;;;;;;;8.30;3.87;;;;;;;;;;5071805;28;20650;-45
2022/10/25 08:15:56;;;;;;;8.87;4.27;;;;;;;;;;5071103;28;20199;-44
2022/10/25 08:18:22;;;;;;;9.40;4.20;;;;;;;;;;5071959;28;20200;-46
2022/10/25 08:20:49;;;;;;;10.17;4.03;;;;;;;;;;5071235;28;20196;-45
2022/10/25 08:23:15;;;;;;;9.43;3.93;;;;;;;;;;5070273;28;20215;-45
2022/10/25 08:25:41;;;;;;;5.57;3.43;;;;;;;;;;5071727;28;20202;-45
2022/10/25 08:28:07;;;;;;;10.33;3.67;;;;;;;;;;5072157;28;20264;-46
2022/10/25 08:30:33;;;;;;;11.90;4.03;;;;;;;;;;5071865;28;20228;-45
2022/10/25 08:33:01;;;;;;;8.93;4.27;;;;;;;;;;5070533;28;20594;-45
2022/10/25 08:35:27;;;;;;;8.53;3.97;;;;;;;;;;5071575;28;20207;-45
2022/10/25 08:37:53;;;;;;;8.77;4.27;;;;;;;;;;5071623;28;20298;-45
2022/10/25 08:40:20;;;;;;;9.10;4.30;;;;;;;;;;5071616;28;20192;-45
2022/10/25 08:42:53;;;;;;;7.80;4.07;;;;;;;;;;5070943;28;20769;-46
2022/10/25 08:45:21;;;;;;;12.57;4.20;;;;;;;;;;5070736;28;20227;-45
2022/10/25 08:47:51;;;;;;;10.17;3.87;;;;;;;;;;5071633;28;20203;-45
2022/10/25 08:50:22;;;;;;;8.50;3.50;;;;;;;;;;5071182;28;20243;-46
2022/10/25 08:52:49;;;;;;;11.07;4.07;;;;;;;;;;5071536;28;20206;-45
2022/10/25 08:55:16;;;;;;;11.10;4.10;;;;;;;;;;5070807;28;20215;-44
2022/10/25 08:57:45;;;;;;;10.70;4.33;;;;;;;;;;5071736;28;20196;-44
2022/10/25 09:00:16;;;;;;;11.53;4.23;;;;;;;;;;5071133;28;20682;-44
2022/10/25 09:02:45;;;;;;;10.60;3.50;;;;;;;;;;5070637;28;20274;-44
2022/10/25 09:05:13;;;;;;;7.40;3.40;;;;;;;;;;5069934;28;20196;-45
2022/10/25 09:07:57;;;;;;;6.93;3.67;;;;;;;;;;5071571;28;20218;-45
2022/10/25 09:10:30;;;;;;;12.70;4.30;;;;;;;;;;5061256;28;20235;-45
2022/10/25 09:13:02;;;;;;;7.90;3.03;;;;;;;;;;5071539;28;20253;-45
2022/10/25 09:15:44;;;;;;;10.30;3.40;;;;;;;;;;5071764;28;20199;-45
2022/10/25 09:18:14;;;;;;;7.83;2.80;;;;;;;;;;5071524;28;20281;-45
2022/10/25 09:20:45;;;;;;;6.90;3.20;;;;;;;;;;5071881;28;20226;-45
2022/10/25 09:23:14;;;;;;;8.30;3.20;;;;;;;;;;5071486;28;20749;-45
2022/10/25 09:25:46;;;;;;;6.13;2.80;;;;;;;;;;5071648;28;20610;-45
2022/10/25 09:28:16;;;;;;;9.43;3.47;;;;;;;;;;5071848;28;20270;-45
2022/10/25 09:30:43;;;;;;;9.30;3.27;;;;;;;;;;5071487;28;20760;-45
2022/10/25 09:33:10;;;;;;;9.53;2.80;;;;;;;;;;5071831;28;20211;-44
2022/10/25 09:35:40;;;;;;;7.90;2.77;;;;;;;;;;5075421;28;20622;-44
2022/10/25 09:38:10;;;;;;;7.53;2.57;;;;;;;;;;5075459;28;20197;-44
2022/10/25 09:40:41;;;;;;;6.40;2.80;;;;;;;;;;5075204;28;20201;-44
2022/10/25 09:43:16;;;;;;;5.57;2.93;;;;;;;;;;5073101;28;20203;-45
2022/10/25 09:45:43;;;;;;;5.77;2.83;;;;;;;;;;5074563;28;20706;-49
2022/10/25 09:48:13;;;;;;;7.17;2.80;;;;;;;;;;5074752;28;20200;-51
2022/10/25 09:50:43;;;;;;;6.87;2.83;;;;;;;;;;5074898;28;20712;-51
2022/10/25 09:53:11;;;;;;;8.07;2.77;;;;;;;;;;5075191;28;20203;-47
2022/10/25 09:55:39;;;;;;;3.83;2.57;;;;;;;;;;5075181;28;20216;-47
2022/10/25 09:58:06;;;;;;;10.30;3.30;;;;;;;;;;5075090;28;20227;-49
2022/10/25 10:00:34;;;;;;;6.20;2.83;;;;;;;;;;5075093;28;20192;-48
2022/10/25 10:03:01;;;;;;;8.60;3.23;;;;;;;;;;5074432;28;20662;-49
2022/10/25 10:05:27;;;;;;;9.60;3.20;;;;;;;;;;5074265;28;20192;-47
2022/10/25 10:07:53;;;;;;;4.87;2.53;;;;;;;;;;5074467;28;20265;-49
2022/10/25 10:10:22;;;;;;;6.10;2.53;;;;;;;;;;5074746;28;20662;-48
2022/10/25 10:12:51;;;;;;;6.10;3.10;;;;;;;;;;5074917;28;20195;-49
2022/10/25 10:15:20;;;;;;;4.87;2.53;;;;;;;;;;5074823;28;20254;-49
2022/10/25 10:17:47;;;;;;;8.43;3.10;;;;;;;;;;5073933;28;20204;-49
2022/10/25 10:20:14;;;;;;;5.20;2.90;;;;;;;;;;5074238;28;20203;-49
2022/10/25 10:22:45;;;;;;;10.40;3.13;;;;;;;;;;5073417;28;20275;-49
2022/10/25 10:25:15;;;;;;;6.13;2.80;;;;;;;;;;5074440;28;20654;-49
2022/10/25 10:27:41;;;;;;;6.10;2.73;;;;;;;;;;5074466;28;20200;-49
2022/10/25 10:30:08;;;;;;;8.97;2.80;;;;;;;;;;5073880;28;20234;-50
2022/10/25 10:32:35;;;;;;;8.93;2.60;;;;;;;;;;5073908;28;20227;-49
2022/10/25 10:35:03;;;;;;;4.93;2.97;;;;;;;;;;5073587;28;20205;-49
2022/10/25 10:37:30;;;;;;;7.03;3.00;;;;;;;;;;5073340;28;20658;-49
2022/10/25 10:39:57;;;;;;;5.43;2.80;;;;;;;;;;5074290;28;20195;-49
2022/10/25 10:42:23;;;;;;;6.13;3.00;;;;;;;;;;5074305;28;20200;-49
2022/10/25 10:45:10;;;;;;;5.67;2.57;;;;;;;;;;5073437;28;20203;-49
2022/10/25 10:47:37;;;;;;;5.40;2.83;;;;;;;;;;5074265;28;20226;-49
2022/10/25 10:50:10;;;;;;;5.50;2.97;;;;;;;;;;5074005;28;20229;-49
2022/10/25 10:52:39;;;;;;;6.77;2.90;;;;;;;;;;5074399;28;20208;-49
2022/10/25 10:55:15;;;;;;;6.23;2.70;;;;;;;;;;5074198;28;20196;-50
2022/10/25 10:57:43;;;;;;;8.20;2.80;;;;;;;;;;5074401;28;20195;-49
2022/10/25 11:00:20;;;;;;;6.07;3.40;;;;;;;;;;5073794;28;20291;-50
2022/10/25 11:02:46;;;;;;;7.17;3.47;;;;;;;;;;5073838;28;20208;-47
2022/10/25 11:05:23;;;;;;;4.80;3.33;;;;;;;;;;5074088;28;20570;-50
2022/10/25 11:07:57;;;;;;;4.93;3.57;;;;;;;;;;5074013;28;20223;-48
2022/10/25 11:10:25;;;;;;;6.27;3.13;;;;;;;;;;5073452;28;20230;-48
2022/10/25 11:13:04;;;;;;;5.83;3.00;;;;;;;;;;5071234;28;20274;-48
2022/10/25 11:15:33;;;;;;;9.27;3.60;;;;;;;;;;5073197;28;20683;-49
2022/10/25 11:18:02;;;;;;;5.93;4.10;;;;;;;;;;5073894;28;20206;-48
2022/10/25 11:20:33;;;;;;;6.27;3.70;;;;;;;;;;5073860;28;20197;-49
2022/10/25 11:23:02;;;;;;;6.17;3.83;;;;;;;;;;5073686;28;20279;-48
2022/10/25 11:25:31;;;;;;;5.93;3.50;;;;;;;;;;5073854;28;20253;-48
2022/10/25 11:28:06;;;;;;;5.17;3.80;;;;;;;;;;5074203;28;20202;-48
2022/10/25 11:30:36;;;;;;;9.03;4.23;;;;;;;;;;5072880;28;20318;-48
2022/10/25 11:33:17;;;;;;;5.17;3.70;;;;;;;;;;5072801;28;20238;-49
2022/10/25 11:35:58;;;;;;;7.83;4.30;;;;;;;;;;5073533;28;20202;-49
2022/10/25 11:38:31;;;;;;;6.47;3.57;;;;;;;;;;5073292;28;20204;-49
2022/10/25 11:41:04;;;;;;;9.80;3.77;;;;;;;;;;5073490;28;20201;-48
2022/10/25 11:43:45;;;;;;;10.17;4.03;;;;;;;;;;5073372;28;20204;-48
2022/10/25 11:46:16;;;;;;;5.20;3.63;;;;;;;;;;5073096;28;20200;-49
2022/10/25 11:48:46;;;;;;;6.57;3.80;;;;;;;;;;5072842;28;20633;-49
2022/10/25 11:51:17;;;;;;;6.37;3.87;;;;;;;;;;5072987;28;20318;-50
2022/10/25 11:53:57;;;;;;;4.77;3.20;;;;;;;;;;5073008;28;20685;-50
2022/10/25 11:56:26;;;;;;;8.07;3.27;;;;;;;;;;5072811;28;20202;-49
2022/10/25 11:59:02;;;;;;;6.43;3.33;;;;;;;;;;5072467;28;20203;-49
2022/10/25 12:01:34;;;;;;;8.00;3.30;;;;;;;;;;5071247;28;20196;-48
2022/10/25 12:04:09;;;;;;;7.30;3.67;;;;;;;;;;5072784;28;20217;-49
2022/10/25 12:06:40;;;;;;;8.33;3.07;;;;;;;;;;5071030;28;20237;-48
2022/10/25 12:09:11;;;;;;;4.70;3.13;;;;;;;;;;5072346;28;20235;-48
2022/10/25 12:11:39;;;;;;;4.73;2.97;;;;;;;;;;5072579;28;20223;-48
2022/10/25 12:14:07;;;;;;;6.20;3.63;;;;;;;;;;5071821;28;20199;-47
2022/10/25 12:16:34;;;;;;;4.07;2.73;;;;;;;;;;5072574;28;20199;-46
2022/10/25 12:19:04;;;;;;;7.33;3.07;;;;;;;;;;5072665;28;20203;-47
2022/10/25 12:21:35;;;;;;;10.20;3.00;;;;;;;;;;5072726;28;20258;-48
2022/10/25 12:24:04;;;;;;;5.30;2.87;;;;;;;;;;5072463;28;20200;-48
2022/10/25 12:26:32;;;;;;;6.37;3.00;;;;;;;;;;5072667;28;20207;-47
2022/10/25 12:29:00;;;;;;;4.20;2.20;;;;;;;;;;5072426;28;20220;-47
2022/10/25 12:31:27;;;;;;;7.00;2.60;;;;;;;;;;5071465;28;20197;-48
2022/10/25 12:33:54;;;;;;;4.83;2.47;;;;;;;;;;5070605;28;20279;-48
2022/10/25 12:36:25;;;;;;;5.63;2.37;;;;;;;;;;5071422;28;20199;-48
2022/10/25 12:38:51;;;;;;;5.20;2.50;;;;;;;;;;5070546;28;20402;-47
2022/10/25 12:41:21;;;;;;;7.33;2.87;;;;;;;;;;5072206;28;20248;-47
2022/10/25 12:43:51;;;;;;;5.63;2.43;;;;;;;;;;5072419;28;20195;-47
2022/10/25 12:46:32;;;;;;;6.50;2.43;;;;;;;;;;5072101;28;20544;-48
2022/10/25 12:49:06;;;;;;;5.17;2.20;;;;;;;;;;5072095;28;20223;-48
2022/10/25 12:51:45;;;;;;;10.17;2.40;;;;;;;;;;5072154;28;20239;-46
2022/10/25 12:54:29;;;;;;;6.60;2.20;;;;;;;;;;5072111;28;20292;-47
2022/10/25 12:57:01;;;;;;;4.50;2.27;;;;;;;;;;5071826;28;20666;-46
2022/10/25 12:59:33;;;;;;;5.83;2.13;;;;;;;;;;5071989;28;20195;-47
2022/10/25 13:02:09;;;;;;;2.73;1.90;;;;;;;;;;5072028;28;20603;-47
2022/10/25 13:04:41;;;;;;;4.47;1.90;;;;;;;;;;5072157;28;20194;-47
2022/10/25 13:07:08;;;;;;;4.23;1.93;;;;;;;;;;5072073;28;20201;-49
2022/10/25 13:09:35;;;;;;;3.47;1.70;;;;;;;;;;5071265;28;20272;-50
2022/10/25 13:12:04;;;;;;;4.20;2.07;;;;;;;;;;5071255;28;20241;-47
2022/10/25 13:14:32;;;;;;;3.00;1.70;;;;;;;;;;5071536;28;20213;-47
2022/10/25 13:17:16;;;;;;;4.00;1.97;;;;;;;;;;5071626;28;20606;-46
2022/10/25 13:19:43;;;;;;;5.50;1.83;;;;;;;;;;5071825;28;20561;-47
2022/10/25 13:22:11;;;;;;;6.07;2.03;;;;;;;;;;5071352;28;20666;-46
2022/10/25 13:24:38;;;;;;;3.87;1.80;;;;;;;;;;5071857;28;20198;-47
2022/10/25 13:27:19;;;;;;;4.43;2.00;;;;;;;;;;5071490;28;20195;-47
2022/10/25 13:29:48;;;;;;;3.03;1.83;;;;;;;;;;5070597;28;20312;-46
2022/10/25 13:32:17;;;;;;;3.37;2.00;;;;;;;;;;5071487;28;20541;-47
2022/10/25 13:34:43;;;;;;;4.63;1.83;;;;;;;;;;5071588;28;20198;-48
2022/10/25 13:37:24;;;;;;;6.17;2.03;;;;;;;;;;5068785;28;20201;-46
2022/10/25 13:39:53;;;;;;;4.80;1.90;;;;;;;;;;5068920;28;20250;-47
2022/10/25 13:42:22;;;;;;;3.43;1.90;;;;;;;;;;5070945;28;20202;-47
2022/10/25 13:44:54;;;;;;;4.03;1.90;;;;;;;;;;5071145;28;20519;-47
2022/10/25 13:47:41;;;;;;;3.90;1.93;;;;;;;;;;5071129;28;20212;-47
2022/10/25 13:50:12;;;;;;;6.23;1.97;;;;;;;;;;5066025;28;20591;-47
2022/10/25 13:52:42;;;;;;;3.40;1.97;;;;;;;;;;5070810;28;20216;-47
2022/10/25 13:55:13;;;;;;;3.50;1.93;;;;;;;;;;5068804;28;20663;-47
2022/10/25 13:57:49;;;;;;;2.77;2.03;;;;;;;;;;5070834;28;20196;-47
2022/10/25 14:00:28;;;;;;;5.00;2.23;;;;;;;;;;5070486;28;20200;-47
2022/10/25 14:03:13;;;;;;;4.07;2.00;;;;;;;;;;5070874;28;20658;-47
2022/10/25 14:06:02;;;;;;;4.60;1.80;;;;;;;;;;5070888;28;20184;-46
2022/10/25 14:08:29;;;;;;;2.90;2.00;;;;;;;;;;5070325;28;20231;-48
2022/10/25 14:10:55;;;;;;;3.37;1.83;;;;;;;;;;5070626;28;20230;-46
2022/10/25 14:13:30;;;;;;;4.23;2.00;;;;;;;;;;5070424;28;20212;-46
2022/10/25 14:16:00;;;;;;;4.33;1.87;;;;;;;;;;5070830;28;20200;-46
2022/10/25 14:18:27;;;;;;;4.37;1.93;;;;;;;;;;5070194;28;20255;-46
2022/10/25 14:20:54;;;;;;;4.13;1.77;;;;;;;;;;5073900;28;20205;-45
2022/10/25 14:23:22;;;;;;;3.03;1.57;;;;;;;;;;5073876;28;20202;-46
2022/10/25 14:25:49;;;;;;;5.20;1.80;;;;;;;;;;5073953;28;20536;-47
2022/10/25 14:28:20;;;;;;;4.40;2.00;;;;;;;;;;5073673;28;20201;-47
2022/10/25 14:30:46;;;;;;;2.63;1.67;;;;;;;;;;5073954;28;20304;-46
2022/10/25 14:33:24;;;;;;;2.33;1.90;;;;;;;;;;5074079;28;20201;-47
2022/10/25 14:35:51;;;;;;;4.13;2.00;;;;;;;;;;5074040;28;20212;-47
2022/10/25 14:38:18;;;;;;;6.57;2.00;;;;;;;;;;5073956;28;20299;-47
2022/10/25 14:40:50;;;;;;;5.93;1.90;;;;;;;;;;5074058;28;20220;-47
2022/10/25 14:43:30;;;;;;;4.87;1.70;;;;;;;;;;5073995;28;20250;-47
2022/10/25 14:45:57;;;;;;;4.87;2.10;;;;;;;;;;5074011;28;20202;-47
2022/10/25 14:48:24;;;;;;;4.23;1.70;;;;;;;;;;5074297;28;20241;-46
2022/10/25 14:50:51;;;;;;;4.17;1.90;;;;;;;;;;5073170;28;20351;-45